createdAt,value
2023-05-10T00:00:55.520Z,39.14
2023-05-10T00:01:56.387Z,39.12
2023-05-10T00:02:55.677Z,39.11
2023-05-10T00:03:55.740Z,39.02
2023-05-10T00:04:55.750Z,39.02
2023-05-10T00:05:55.796Z,39.14
2023-05-10T00:06:55.855Z,39.12
2023-05-10T00:07:55.881Z,39.16
2023-05-10T00:08:55.915Z,39.08
2023-05-10T00:09:55.945Z,39.16
2023-05-10T00:10:55.990Z,39.11
2023-05-10T00:11:56.049Z,39.20
2023-05-10T00:12:56.162Z,39.12
2023-05-10T00:13:56.133Z,39.14
2023-05-10T00:14:56.174Z,39.07
2023-05-10T00:15:56.230Z,39.08
2023-05-10T00:16:56.300Z,39.07
2023-05-10T00:17:56.352Z,39.10
2023-05-10T00:18:56.397Z,39.08
2023-05-10T00:19:56.451Z,39.19
2023-05-10T00:20:56.455Z,39.20
2023-05-10T00:21:56.532Z,39.15
2023-05-10T00:22:56.581Z,39.11
2023-05-10T00:23:56.598Z,39.04
2023-05-10T00:24:56.692Z,39.06
2023-05-10T00:25:56.725Z,39.14
2023-05-10T00:26:56.725Z,39.00
2023-05-10T00:27:56.823Z,39.09
2023-05-10T00:28:56.820Z,38.95
2023-05-10T00:29:56.885Z,38.95
2023-05-10T00:30:56.941Z,38.99
2023-05-10T00:31:57.034Z,38.94
2023-05-10T00:32:57.072Z,38.97
2023-05-10T00:33:57.051Z,38.88
2023-05-10T00:34:57.121Z,38.91
2023-05-10T00:35:57.147Z,38.90
2023-05-10T00:36:57.243Z,38.81
2023-05-10T00:37:57.295Z,38.87
2023-05-10T00:38:57.329Z,38.88
2023-05-10T00:39:57.351Z,38.84
2023-05-10T00:40:57.415Z,38.75
2023-05-10T00:41:57.452Z,38.83
2023-05-10T00:42:57.490Z,38.83
2023-05-10T00:43:57.542Z,38.82
2023-05-10T00:44:57.606Z,38.65
2023-05-10T00:45:57.657Z,38.64
2023-05-10T00:46:57.645Z,38.71
2023-05-10T00:47:57.708Z,38.65
2023-05-10T00:48:57.771Z,38.71
2023-05-10T00:49:57.805Z,38.78
2023-05-10T00:50:57.836Z,38.81
2023-05-10T00:51:57.902Z,38.82
2023-05-10T00:52:57.943Z,38.87
2023-05-10T00:53:57.973Z,39.01
2023-05-10T00:54:58.022Z,39.00
2023-05-10T00:55:58.096Z,39.01
2023-05-10T00:56:58.147Z,39.19
2023-05-10T00:57:58.206Z,39.09
2023-05-10T00:58:58.224Z,39.04
2023-05-10T00:59:58.263Z,39.03
2023-05-10T01:00:58.334Z,39.10
2023-05-10T01:01:58.350Z,39.08
2023-05-10T01:02:58.480Z,38.99
2023-05-10T01:03:58.432Z,38.84
2023-05-10T01:04:58.485Z,38.82
2023-05-10T01:05:58.535Z,38.76
2023-05-10T01:06:58.550Z,38.82
2023-05-10T01:07:58.596Z,38.68
2023-05-10T01:08:58.655Z,38.79
2023-05-10T01:09:58.699Z,38.75
2023-05-10T01:10:58.708Z,38.71
2023-05-10T01:11:58.813Z,38.74
2023-05-10T01:12:58.814Z,38.63
2023-05-10T01:13:58.851Z,38.66
2023-05-10T01:14:58.890Z,38.53
2023-05-10T01:15:58.963Z,38.47
2023-05-10T01:16:59.001Z,38.44
2023-05-10T01:17:59.053Z,38.39
2023-05-10T01:18:59.066Z,38.38
2023-05-10T01:19:59.040Z,38.31
2023-05-10T01:20:59.079Z,38.25
2023-05-10T01:21:59.125Z,38.23
2023-05-10T01:22:59.159Z,38.17
2023-05-10T01:23:59.177Z,38.18
2023-05-10T01:24:59.194Z,38.12
2023-05-10T01:25:59.243Z,38.04
2023-05-10T01:26:59.301Z,38.02
2023-05-10T01:27:59.343Z,37.97
2023-05-10T01:28:59.367Z,37.86
2023-05-10T01:30:14.243Z,37.83
2023-05-10T01:31:00.364Z,37.78
2023-05-10T01:31:59.351Z,37.77
2023-05-10T01:32:59.333Z,37.69
2023-05-10T01:33:59.302Z,37.67
2023-05-10T01:34:59.282Z,37.57
2023-05-10T01:35:59.250Z,37.52
2023-05-10T01:36:59.250Z,37.49
2023-05-10T01:37:59.242Z,37.48
2023-05-10T01:38:59.190Z,37.40
2023-05-10T01:39:59.189Z,37.36
2023-05-10T01:40:59.170Z,37.34
2023-05-10T01:41:59.145Z,37.26
2023-05-10T01:42:59.149Z,37.26
2023-05-10T01:43:59.127Z,37.25
2023-05-10T01:44:59.097Z,37.20
2023-05-10T01:45:59.067Z,37.14
2023-05-10T01:46:59.174Z,37.14
2023-05-10T01:47:59.079Z,37.14
2023-05-10T01:48:59.001Z,37.11
2023-05-10T01:49:58.999Z,37.08
2023-05-10T01:50:59.010Z,37.05
2023-05-10T01:51:59.046Z,36.97
2023-05-10T01:52:59.077Z,37.01
2023-05-10T01:53:59.054Z,36.96
2023-05-10T01:54:59.080Z,36.96
2023-05-10T01:55:59.052Z,36.93
2023-05-10T01:56:59.087Z,36.96
2023-05-10T01:57:59.082Z,36.98
2023-05-10T01:58:59.086Z,36.97
2023-05-10T01:59:59.096Z,36.91
2023-05-10T02:00:59.103Z,36.86
2023-05-10T02:01:59.091Z,36.89
2023-05-10T02:02:59.118Z,36.91
2023-05-10T02:03:59.126Z,36.90
2023-05-10T02:04:59.109Z,36.87
2023-05-10T02:05:59.109Z,36.82
2023-05-10T02:06:59.092Z,36.90
2023-05-10T02:07:59.099Z,36.85
2023-05-10T02:08:59.087Z,36.82
2023-05-10T02:09:59.098Z,36.80
2023-05-10T02:10:59.107Z,36.80
2023-05-10T02:11:59.084Z,36.85
2023-05-10T02:12:59.126Z,36.80
2023-05-10T02:13:59.092Z,36.86
2023-05-10T02:14:59.100Z,36.79
2023-05-10T02:15:59.123Z,36.81
2023-05-10T02:16:59.257Z,36.76
2023-05-10T02:17:59.228Z,36.77
2023-05-10T02:18:59.134Z,36.81
2023-05-10T02:19:59.130Z,36.90
2023-05-10T02:20:59.134Z,36.94
2023-05-10T02:21:59.143Z,36.90
2023-05-10T02:22:59.195Z,36.86
2023-05-10T02:23:59.167Z,36.88
2023-05-10T02:24:59.182Z,36.99
2023-05-10T02:25:59.194Z,37.05
2023-05-10T02:26:59.223Z,37.05
2023-05-10T02:27:59.225Z,37.10
2023-05-10T02:28:59.230Z,37.12
2023-05-10T02:29:59.242Z,37.14
2023-05-10T02:30:59.246Z,37.15
2023-05-10T02:31:59.289Z,37.15
2023-05-10T02:32:59.310Z,37.11
2023-05-10T02:33:59.269Z,37.15
2023-05-10T02:34:59.286Z,37.13
2023-05-10T02:35:59.299Z,37.20
2023-05-10T02:36:59.293Z,37.12
2023-05-10T02:37:59.332Z,37.02
2023-05-10T02:38:59.348Z,37.07
2023-05-10T02:39:59.319Z,37.02
2023-05-10T02:40:59.370Z,36.99
2023-05-10T02:41:59.378Z,36.99
2023-05-10T02:42:59.414Z,37.05
2023-05-10T02:43:59.426Z,37.09
2023-05-10T02:44:59.424Z,37.11
2023-05-10T02:45:59.465Z,37.19
2023-05-10T02:46:59.472Z,37.22
2023-05-10T02:47:59.579Z,37.30
2023-05-10T02:48:59.539Z,37.34
2023-05-10T02:49:59.556Z,37.35
2023-05-10T02:50:59.565Z,37.39
2023-05-10T02:51:59.605Z,37.33
2023-05-10T02:52:59.611Z,37.22
2023-05-10T02:53:59.648Z,37.22
2023-05-10T02:54:59.684Z,37.40
2023-05-10T02:55:59.694Z,37.28
2023-05-10T02:56:59.738Z,37.28
2023-05-10T02:57:59.774Z,37.25
2023-05-10T02:58:59.828Z,37.37
2023-05-10T02:59:59.825Z,37.36
2023-05-10T03:00:59.873Z,37.33
2023-05-10T03:01:59.875Z,37.42
2023-05-10T03:02:59.952Z,37.34
2023-05-10T03:03:59.923Z,37.34
2023-05-10T03:05:00.006Z,37.33
2023-05-10T03:05:59.974Z,37.36
2023-05-10T03:07:00.225Z,37.40
2023-05-10T03:07:59.992Z,37.35
2023-05-10T03:08:59.971Z,37.35
2023-05-10T03:09:59.988Z,37.28
2023-05-10T03:10:59.964Z,37.30
2023-05-10T03:11:59.975Z,37.24
2023-05-10T03:13:00.098Z,37.19
2023-05-10T03:14:00.014Z,37.19
2023-05-10T03:15:00.055Z,37.23
2023-05-10T03:16:00.082Z,37.16
2023-05-10T03:17:00.029Z,37.07
2023-05-10T03:18:00.115Z,37.06
2023-05-10T03:19:00.145Z,37.02
2023-05-10T03:20:00.127Z,37.06
2023-05-10T03:21:00.114Z,37.03
2023-05-10T03:22:00.164Z,37.01
2023-05-10T03:23:00.141Z,36.98
2023-05-10T03:24:00.201Z,36.96
2023-05-10T03:25:00.156Z,36.94
2023-05-10T03:26:00.153Z,36.91
2023-05-10T03:27:00.174Z,36.89
2023-05-10T03:28:00.202Z,36.86
2023-05-10T03:29:00.147Z,36.76
2023-05-10T03:30:00.206Z,36.81
2023-05-10T03:31:00.241Z,36.84
2023-05-10T03:32:00.151Z,36.79
2023-05-10T03:33:00.233Z,36.76
2023-05-10T03:34:00.163Z,36.78
2023-05-10T03:35:00.175Z,36.79
2023-05-10T03:36:00.163Z,36.76
2023-05-10T03:37:00.176Z,36.79
2023-05-10T03:38:00.135Z,36.79
2023-05-10T03:39:00.172Z,36.74
2023-05-10T03:40:00.179Z,36.80
2023-05-10T03:41:00.116Z,36.75
2023-05-10T03:42:00.155Z,36.71
2023-05-10T03:43:00.163Z,36.74
2023-05-10T03:44:00.127Z,36.75
2023-05-10T03:45:00.142Z,36.82
2023-05-10T03:46:00.146Z,36.78
2023-05-10T03:47:00.211Z,36.78
2023-05-10T03:48:00.184Z,36.71
2023-05-10T03:49:00.142Z,36.83
2023-05-10T03:50:00.402Z,36.71
2023-05-10T03:51:00.128Z,36.79
2023-05-10T03:52:00.167Z,36.92
2023-05-10T03:53:00.171Z,36.94
2023-05-10T03:54:00.195Z,37.03
2023-05-10T03:55:00.201Z,37.12
2023-05-10T03:56:00.185Z,37.07
2023-05-10T03:57:00.269Z,37.20
2023-05-10T03:58:00.220Z,37.21
2023-05-10T03:59:00.238Z,37.28
2023-05-10T04:00:00.267Z,37.19
2023-05-10T04:01:00.294Z,37.21
2023-05-10T04:02:00.383Z,37.17
2023-05-10T04:03:00.435Z,37.23
2023-05-10T04:04:00.375Z,37.19
2023-05-10T04:05:00.335Z,37.17
2023-05-10T04:06:00.377Z,37.14
2023-05-10T04:07:00.424Z,37.20
2023-05-10T04:08:00.462Z,37.29
2023-05-10T04:09:00.431Z,37.31
2023-05-10T04:10:00.480Z,37.24
2023-05-10T04:11:00.519Z,37.25
2023-05-10T04:12:00.537Z,37.27
2023-05-10T04:13:00.590Z,37.21
2023-05-10T04:14:00.567Z,37.26
2023-05-10T04:15:00.573Z,37.09
2023-05-10T04:16:00.597Z,37.13
2023-05-10T04:17:00.619Z,36.99
2023-05-10T04:18:00.648Z,36.85
2023-05-10T04:19:00.643Z,36.89
2023-05-10T04:20:00.631Z,36.88
2023-05-10T04:21:00.667Z,37.03
2023-05-10T04:22:00.691Z,36.99
2023-05-10T04:23:00.704Z,36.94
2023-05-10T04:24:00.685Z,36.89
2023-05-10T04:25:00.736Z,36.92
2023-05-10T04:26:00.732Z,36.78
2023-05-10T04:27:00.778Z,36.84
2023-05-10T04:28:00.787Z,36.81
2023-05-10T04:29:00.806Z,36.77
2023-05-10T04:30:00.797Z,36.92
2023-05-10T04:31:00.818Z,36.87
2023-05-10T04:32:00.819Z,36.75
2023-05-10T04:33:00.884Z,36.70
2023-05-10T04:34:00.842Z,36.73
2023-05-10T04:35:00.857Z,36.70
2023-05-10T04:36:00.828Z,36.65
2023-05-10T04:37:00.874Z,36.57
2023-05-10T04:38:00.881Z,36.59
2023-05-10T04:39:00.871Z,36.56
2023-05-10T04:40:00.885Z,36.52
2023-05-10T04:41:00.887Z,36.56
2023-05-10T04:42:00.908Z,36.55
2023-05-10T04:43:00.895Z,36.44
2023-05-10T04:44:00.909Z,36.43
2023-05-10T04:45:00.906Z,36.43
2023-05-10T04:46:00.922Z,36.45
2023-05-10T04:47:00.892Z,36.38
2023-05-10T04:48:00.939Z,36.32
2023-05-10T04:49:00.935Z,36.28
2023-05-10T04:50:00.910Z,36.38
2023-05-10T04:51:00.956Z,36.29
2023-05-10T04:52:00.932Z,36.29
2023-05-10T04:53:00.927Z,36.21
2023-05-10T04:54:06.656Z,36.27
2023-05-10T04:55:01.898Z,36.28
2023-05-10T04:56:00.869Z,36.24
2023-05-10T04:57:00.853Z,36.25
2023-05-10T04:58:00.843Z,36.24
2023-05-10T04:59:00.803Z,36.23
2023-05-10T05:00:00.758Z,36.33
2023-05-10T05:01:07.730Z,36.29
2023-05-10T05:02:00.831Z,36.07
2023-05-10T05:03:00.754Z,36.07
2023-05-10T05:04:00.831Z,35.96
2023-05-10T05:05:01.481Z,36.02
2023-05-10T05:06:00.631Z,36.11
2023-05-10T05:07:00.609Z,36.15
2023-05-10T05:08:00.610Z,36.14
2023-05-10T05:09:00.586Z,36.07
2023-05-10T05:10:00.548Z,36.01
2023-05-10T05:11:00.546Z,36.10
2023-05-10T05:12:00.496Z,36.02
2023-05-10T05:13:00.569Z,35.97
2023-05-10T05:14:00.501Z,35.91
2023-05-10T05:15:00.458Z,35.91
2023-05-10T05:16:00.432Z,36.02
2023-05-10T05:17:00.399Z,35.98
2023-05-10T05:18:00.367Z,35.89
2023-05-10T05:19:00.338Z,35.80
2023-05-10T05:20:00.317Z,35.82
2023-05-10T05:21:00.293Z,35.78
2023-05-10T05:22:00.335Z,35.80
2023-05-10T05:23:00.235Z,35.83
2023-05-10T05:24:00.208Z,35.78
2023-05-10T05:25:00.161Z,35.79
2023-05-10T05:26:00.151Z,35.77
2023-05-10T05:27:00.178Z,35.69
2023-05-10T05:28:00.139Z,35.76
2023-05-10T05:29:00.096Z,35.84
2023-05-10T05:30:00.053Z,35.82
2023-05-10T05:31:00.068Z,35.71
2023-05-10T05:32:00.302Z,35.78
2023-05-10T05:33:00.025Z,36.64
2023-05-10T05:34:00.017Z,36.93
2023-05-10T05:34:59.973Z,37.07
2023-05-10T05:35:59.889Z,37.26
2023-05-10T05:36:59.884Z,37.65
2023-05-10T05:37:59.851Z,37.94
2023-05-10T05:39:00.005Z,37.95
2023-05-10T05:39:59.796Z,38.34
2023-05-10T05:40:59.832Z,38.16
2023-05-10T05:41:59.866Z,38.17
2023-05-10T05:43:00.517Z,38.59
2023-05-10T05:44:00.047Z,38.46
2023-05-10T05:44:59.923Z,38.29
2023-05-10T05:46:07.048Z,38.49
2023-05-10T05:46:59.918Z,38.28
2023-05-10T05:47:59.931Z,38.19
2023-05-10T05:49:00.125Z,38.02
2023-05-10T05:49:59.832Z,37.79
2023-05-10T05:50:59.832Z,37.83
2023-05-10T05:51:59.785Z,38.08
2023-05-10T05:52:59.792Z,38.33
2023-05-10T05:54:00.093Z,38.03
2023-05-10T05:54:59.697Z,37.88
2023-05-10T05:55:59.687Z,37.55
2023-05-10T05:57:01.192Z,38.11
2023-05-10T05:57:59.690Z,38.49
2023-05-10T05:58:59.596Z,38.29
2023-05-10T05:59:59.570Z,37.58
2023-05-10T06:00:59.614Z,37.17
2023-05-10T06:01:59.604Z,36.94
2023-05-10T06:02:59.656Z,36.68
2023-05-10T06:03:59.571Z,37.01
2023-05-10T06:04:59.459Z,36.93
2023-05-10T06:05:59.497Z,37.11
2023-05-10T06:06:59.449Z,36.92
2023-05-10T06:07:59.434Z,36.89
2023-05-10T06:08:59.432Z,36.93
2023-05-10T06:09:59.379Z,36.99
2023-05-10T06:10:59.993Z,36.99
2023-05-10T06:11:59.396Z,37.09
2023-05-10T06:12:59.469Z,37.11
2023-05-10T06:13:59.518Z,37.01
2023-05-10T06:14:59.481Z,37.12
2023-05-10T06:15:59.523Z,37.22
2023-05-10T06:16:59.588Z,37.19
2023-05-10T06:17:59.677Z,36.98
2023-05-10T06:18:59.671Z,36.94
2023-05-10T06:19:59.775Z,36.99
2023-05-10T06:20:59.724Z,36.71
2023-05-10T06:22:00.592Z,36.98
2023-05-10T06:22:59.850Z,37.05
2023-05-10T06:23:59.837Z,36.86
2023-05-10T06:24:59.872Z,36.85
2023-05-10T06:25:59.896Z,37.08
2023-05-10T06:26:59.920Z,36.91
2023-05-10T06:27:59.949Z,36.84
2023-05-10T06:29:00.134Z,37.04
2023-05-10T06:30:11.832Z,37.32
2023-05-10T06:31:01.091Z,37.46
2023-05-10T06:32:00.027Z,37.48
2023-05-10T06:33:00.060Z,37.39
2023-05-10T06:33:59.959Z,37.39
2023-05-10T06:34:59.971Z,37.26
2023-05-10T06:35:59.927Z,37.38
2023-05-10T06:36:59.911Z,37.47
2023-05-10T06:37:59.905Z,37.48
2023-05-10T06:38:59.913Z,37.48
2023-05-10T06:39:59.887Z,37.09
2023-05-10T06:40:59.915Z,37.05
2023-05-10T06:41:59.990Z,37.34
2023-05-10T06:43:00.133Z,37.36
2023-05-10T06:44:00.168Z,37.23
2023-05-10T06:45:00.267Z,37.14
2023-05-10T06:46:00.281Z,37.24
2023-05-10T06:47:00.280Z,37.33
2023-05-10T06:48:00.374Z,37.41
2023-05-10T06:49:00.358Z,37.38
2023-05-10T06:50:00.803Z,37.21
2023-05-10T06:51:00.437Z,37.33
2023-05-10T06:52:00.497Z,37.25
2023-05-10T06:53:00.506Z,37.16
2023-05-10T06:54:00.612Z,37.33
2023-05-10T06:55:00.642Z,37.21
2023-05-10T06:56:00.706Z,37.18
2023-05-10T06:57:01.843Z,37.22
2023-05-10T06:58:00.793Z,37.07
2023-05-10T06:59:00.816Z,37.18
2023-05-10T07:00:00.984Z,37.19
2023-05-10T07:01:00.955Z,37.12
2023-05-10T07:02:01.033Z,37.23
2023-05-10T07:03:01.081Z,37.20
2023-05-10T07:04:01.061Z,37.04
2023-05-10T07:05:03.210Z,36.81
2023-05-10T07:06:01.203Z,36.74
2023-05-10T07:07:01.269Z,36.76
2023-05-10T07:08:01.322Z,36.85
2023-05-10T07:09:01.404Z,36.67
2023-05-10T07:10:01.394Z,36.77
2023-05-10T07:11:01.460Z,36.76
2023-05-10T07:12:01.507Z,36.56
2023-05-10T07:13:01.643Z,36.64
2023-05-10T07:14:01.565Z,36.74
2023-05-10T07:15:01.602Z,36.65
2023-05-10T07:16:01.662Z,36.53
2023-05-10T07:17:01.738Z,36.39
2023-05-10T07:18:01.908Z,36.34
2023-05-10T07:19:01.819Z,36.52
2023-05-10T07:20:01.804Z,36.73
2023-05-10T07:21:01.922Z,36.64
2023-05-10T07:22:01.943Z,36.63
2023-05-10T07:23:01.998Z,36.44
2023-05-10T07:24:02.062Z,36.38
2023-05-10T07:25:02.108Z,36.39
2023-05-10T07:26:02.086Z,36.36
2023-05-10T07:27:02.095Z,36.34
2023-05-10T07:28:02.162Z,36.35
2023-05-10T07:29:02.166Z,36.43
2023-05-10T07:30:02.578Z,36.59
2023-05-10T07:31:02.337Z,36.80
2023-05-10T07:32:02.360Z,36.84
2023-05-10T07:33:02.334Z,36.85
2023-05-10T07:34:02.325Z,36.96
2023-05-10T07:35:02.346Z,36.79
2023-05-10T07:36:02.310Z,36.68
2023-05-10T07:37:02.379Z,36.76
2023-05-10T07:38:02.359Z,36.89
2023-05-10T07:39:02.358Z,36.99
2023-05-10T07:40:02.346Z,36.82
2023-05-10T07:41:02.318Z,37.04
2023-05-10T07:42:02.319Z,37.13
2023-05-10T07:43:02.339Z,37.28
2023-05-10T07:44:02.360Z,37.30
2023-05-10T07:45:02.378Z,37.39
2023-05-10T07:46:02.402Z,37.41
2023-05-10T07:47:02.366Z,36.94
2023-05-10T07:48:02.443Z,37.17
2023-05-10T07:49:02.340Z,37.28
2023-05-10T07:50:02.341Z,37.25
2023-05-10T07:51:02.394Z,36.96
2023-05-10T07:52:02.349Z,36.82
2023-05-10T07:53:02.375Z,36.86
2023-05-10T07:54:02.383Z,36.91
2023-05-10T07:55:02.414Z,37.20
2023-05-10T07:56:02.427Z,37.39
2023-05-10T07:57:02.366Z,37.30
2023-05-10T07:58:02.396Z,37.04
2023-05-10T07:59:02.393Z,36.99
2023-05-10T08:00:02.585Z,36.81
2023-05-10T08:01:02.411Z,36.64
2023-05-10T08:02:02.424Z,36.57
2023-05-10T08:03:02.502Z,36.54
2023-05-10T08:04:02.736Z,36.72
2023-05-10T08:05:02.439Z,36.79
2023-05-10T08:06:02.420Z,36.93
2023-05-10T08:07:02.434Z,37.01
2023-05-10T08:08:02.451Z,36.96
2023-05-10T08:09:02.510Z,36.92
2023-05-10T08:10:02.480Z,36.92
2023-05-10T08:11:02.517Z,36.81
2023-05-10T08:12:02.531Z,36.99
2023-05-10T08:13:02.547Z,37.30
2023-05-10T08:14:02.571Z,37.41
2023-05-10T08:15:02.597Z,37.61
2023-05-10T08:16:02.630Z,37.79
2023-05-10T08:17:02.642Z,37.92
2023-05-10T08:18:02.714Z,37.89
2023-05-10T08:19:02.822Z,37.84
2023-05-10T08:20:02.705Z,38.09
2023-05-10T08:21:03.586Z,38.13
2023-05-10T08:22:02.737Z,37.86
2023-05-10T08:23:02.747Z,37.91
2023-05-10T08:24:02.721Z,38.12
2023-05-10T08:25:03.136Z,38.21
2023-05-10T08:26:02.783Z,38.14
2023-05-10T08:27:02.821Z,38.16
2023-05-10T08:28:02.827Z,39.06
2023-05-10T08:29:02.908Z,40.94
2023-05-10T08:30:02.952Z,41.28
2023-05-10T08:31:03.118Z,41.97
2023-05-10T08:32:02.895Z,41.55
2023-05-10T08:33:02.950Z,41.70
2023-05-10T08:34:02.933Z,41.17
2023-05-10T08:35:02.941Z,41.33
2023-05-10T08:36:02.954Z,41.26
2023-05-10T08:37:02.946Z,41.00
2023-05-10T08:38:02.955Z,41.03
2023-05-10T08:39:02.985Z,40.01
2023-05-10T08:40:03.003Z,41.14
2023-05-10T08:41:03.035Z,40.51
2023-05-10T08:42:03.054Z,40.41
2023-05-10T08:43:03.084Z,39.74
2023-05-10T08:44:03.189Z,39.92
2023-05-10T08:45:03.241Z,40.12
2023-05-10T08:46:03.299Z,40.07
2023-05-10T08:47:03.385Z,39.76
2023-05-10T08:48:03.380Z,40.22
2023-05-10T08:49:03.343Z,40.05
2023-05-10T08:50:03.412Z,39.75
2023-05-10T08:51:03.629Z,39.59
2023-05-10T08:52:03.462Z,39.38
2023-05-10T08:53:03.530Z,39.40
2023-05-10T08:54:03.588Z,39.31
2023-05-10T08:55:03.580Z,39.41
2023-05-10T08:56:03.643Z,39.35
2023-05-10T08:57:03.677Z,39.32
2023-05-10T08:58:03.672Z,39.04
2023-05-10T08:59:03.745Z,39.27
2023-05-10T09:00:03.751Z,39.38
2023-05-10T09:01:04.142Z,38.95
2023-05-10T09:02:03.849Z,39.07
2023-05-10T09:03:03.870Z,38.74
2023-05-10T09:04:03.885Z,38.86
2023-05-10T09:05:04.043Z,38.55
2023-05-10T09:06:04.122Z,38.73
2023-05-10T09:07:03.976Z,38.81
2023-05-10T09:08:04.040Z,38.63
2023-05-10T09:09:04.054Z,38.30
2023-05-10T09:10:04.116Z,38.33
2023-05-10T09:11:04.165Z,38.38
2023-05-10T09:12:04.116Z,38.13
2023-05-10T09:13:04.200Z,38.08
2023-05-10T09:14:04.162Z,37.82
2023-05-10T09:15:04.198Z,37.84
2023-05-10T09:16:19.802Z,37.90
2023-05-10T09:17:05.318Z,37.81
2023-05-10T09:18:04.190Z,37.67
2023-05-10T09:19:04.285Z,37.52
2023-05-10T09:20:04.127Z,37.39
2023-05-10T09:21:04.182Z,37.27
2023-05-10T09:22:04.160Z,37.06
2023-05-10T09:23:04.212Z,37.03
2023-05-10T09:24:04.208Z,36.99
2023-05-10T09:25:04.216Z,37.03
2023-05-10T09:26:04.633Z,36.89
2023-05-10T09:27:04.224Z,36.74
2023-05-10T09:28:04.246Z,36.61
2023-05-10T09:29:04.244Z,36.62
2023-05-10T09:30:04.276Z,36.51
2023-05-10T09:31:04.705Z,36.53
2023-05-10T09:32:04.261Z,36.56
2023-05-10T09:33:04.383Z,36.53
2023-05-10T09:34:04.338Z,36.46
2023-05-10T09:35:04.328Z,36.47
2023-05-10T09:36:04.348Z,36.51
2023-05-10T09:37:04.359Z,36.51
2023-05-10T09:38:04.365Z,36.56
2023-05-10T09:39:04.362Z,36.75
2023-05-10T09:40:04.391Z,36.72
2023-05-10T09:41:04.651Z,36.83
2023-05-10T09:42:04.405Z,36.94
2023-05-10T09:43:04.486Z,36.94
2023-05-10T09:44:04.393Z,36.92
2023-05-10T09:45:04.416Z,36.71
2023-05-10T09:46:04.415Z,36.83
2023-05-10T09:47:04.421Z,36.88
2023-05-10T09:48:04.439Z,36.79
2023-05-10T09:49:04.380Z,36.73
2023-05-10T09:50:04.397Z,37.16
2023-05-10T09:51:04.370Z,37.04
2023-05-10T09:52:04.356Z,37.09
2023-05-10T09:53:04.429Z,37.10
2023-05-10T09:54:04.365Z,37.03
2023-05-10T09:55:04.426Z,37.01
2023-05-10T09:56:04.442Z,37.05
2023-05-10T09:57:04.430Z,37.13
2023-05-10T09:58:04.418Z,36.96
2023-05-10T09:59:04.455Z,36.92
2023-05-10T10:00:04.489Z,36.97
2023-05-10T10:01:04.708Z,36.99
2023-05-10T10:02:04.586Z,36.92
2023-05-10T10:03:04.594Z,37.05
2023-05-10T10:04:04.558Z,37.10
2023-05-10T10:05:04.698Z,37.14
2023-05-10T10:06:04.631Z,37.25
2023-05-10T10:07:04.796Z,37.14
2023-05-10T10:08:04.699Z,37.09
2023-05-10T10:09:04.680Z,37.04
2023-05-10T10:10:04.750Z,36.98
2023-05-10T10:11:05.165Z,37.14
2023-05-10T10:12:04.797Z,37.05
2023-05-10T10:13:04.822Z,37.09
2023-05-10T10:14:04.827Z,37.09
2023-05-10T10:15:04.867Z,37.20
2023-05-10T10:16:05.831Z,37.01
2023-05-10T10:17:07.331Z,36.78
2023-05-10T10:18:04.925Z,36.75
2023-05-10T10:19:04.948Z,36.29
2023-05-10T10:20:04.871Z,36.09
2023-05-10T10:21:04.865Z,35.80
2023-05-10T10:22:05.649Z,35.56
2023-05-10T10:23:04.830Z,35.65
2023-05-10T10:24:04.847Z,35.81
2023-05-10T10:25:04.819Z,36.02
2023-05-10T10:26:04.810Z,36.34
2023-05-10T10:27:05.166Z,36.34
2023-05-10T10:28:04.772Z,36.11
2023-05-10T10:29:04.754Z,36.31
2023-05-10T10:30:04.756Z,36.30
2023-05-10T10:31:04.805Z,35.26
2023-05-10T10:32:04.735Z,35.13
2023-05-10T10:33:10.364Z,35.27
2023-05-10T10:34:05.737Z,35.82
2023-05-10T10:35:04.716Z,35.46
2023-05-10T10:36:04.757Z,35.51
2023-05-10T10:37:05.161Z,35.59
2023-05-10T10:38:04.725Z,35.46
2023-05-10T10:39:04.723Z,35.47
2023-05-10T10:40:04.693Z,35.55
2023-05-10T10:41:04.732Z,35.73
2023-05-10T10:42:05.164Z,36.33
2023-05-10T10:43:04.675Z,36.82
2023-05-10T10:44:04.685Z,37.14
2023-05-10T10:45:04.682Z,37.15
2023-05-10T10:46:04.658Z,37.05
2023-05-10T10:47:05.249Z,37.33
2023-05-10T10:48:04.741Z,37.09
2023-05-10T10:49:04.745Z,37.10
2023-05-10T10:50:04.687Z,36.94
2023-05-10T10:51:04.662Z,36.83
2023-05-10T10:52:04.684Z,36.54
2023-05-10T10:53:04.685Z,36.75
2023-05-10T10:54:04.665Z,36.91
2023-05-10T10:55:05.667Z,36.96
2023-05-10T10:56:04.694Z,36.93
2023-05-10T10:57:04.743Z,36.77
2023-05-10T10:58:04.720Z,36.56
2023-05-10T10:59:04.780Z,36.93
2023-05-10T11:00:04.791Z,36.80
2023-05-10T11:01:04.889Z,36.53
2023-05-10T11:02:04.849Z,36.50
2023-05-10T11:03:04.884Z,35.34
2023-05-10T11:04:04.960Z,35.62
2023-05-10T11:05:04.894Z,35.51
2023-05-10T11:06:04.958Z,35.79
2023-05-10T11:07:05.168Z,35.62
2023-05-10T11:08:04.967Z,35.69
2023-05-10T11:09:04.984Z,35.62
2023-05-10T11:10:05.026Z,35.71
2023-05-10T11:11:05.050Z,35.81
2023-05-10T11:12:05.067Z,36.13
2023-05-10T11:13:05.097Z,36.28
2023-05-10T11:14:05.105Z,36.25
2023-05-10T11:15:05.212Z,36.36
2023-05-10T11:16:05.144Z,36.46
2023-05-10T11:17:05.221Z,36.65
2023-05-10T11:18:05.261Z,36.21
2023-05-10T11:19:05.281Z,36.06
2023-05-10T11:20:05.255Z,36.43
2023-05-10T11:21:05.248Z,35.95
2023-05-10T11:22:05.694Z,38.01
2023-05-10T11:23:05.310Z,36.83
2023-05-10T11:24:05.291Z,36.89
2023-05-10T11:25:05.267Z,36.48
2023-05-10T11:26:05.337Z,36.73
2023-05-10T11:27:05.730Z,36.80
2023-05-10T11:28:05.322Z,36.98
2023-05-10T11:29:05.395Z,36.95
2023-05-10T11:30:05.351Z,36.79
2023-05-10T11:31:05.500Z,36.71
2023-05-10T11:32:05.498Z,36.60
2023-05-10T11:33:05.755Z,36.52
2023-05-10T11:34:05.537Z,36.52
2023-05-10T11:35:05.581Z,36.43
2023-05-10T11:36:05.603Z,36.38
2023-05-10T11:37:05.623Z,36.36
2023-05-10T11:38:05.718Z,36.23
2023-05-10T11:39:05.726Z,36.18
2023-05-10T11:40:05.724Z,35.75
2023-05-10T11:41:05.774Z,34.68
2023-05-10T11:42:05.827Z,34.79
2023-05-10T11:43:05.848Z,35.03
2023-05-10T11:44:05.895Z,35.09
2023-05-10T11:45:05.936Z,35.40
2023-05-10T11:46:05.988Z,35.44
2023-05-10T11:47:05.977Z,35.16
2023-05-10T11:48:06.072Z,35.01
2023-05-10T11:49:06.033Z,34.55
2023-05-10T11:50:06.054Z,34.38
2023-05-10T11:51:06.112Z,34.56
2023-05-10T11:52:06.162Z,34.83
2023-05-10T11:53:06.181Z,34.64
2023-05-10T11:54:06.214Z,34.49
2023-05-10T11:55:06.232Z,34.48
2023-05-10T11:56:06.330Z,34.58
2023-05-10T11:57:06.306Z,34.62
2023-05-10T11:58:06.356Z,34.43
2023-05-10T11:59:06.313Z,34.39
2023-05-10T12:00:06.376Z,34.20
2023-05-10T12:01:06.410Z,34.30
2023-05-10T12:02:06.427Z,34.29
2023-05-10T12:03:06.534Z,34.66
2023-05-10T12:04:06.615Z,34.73
2023-05-10T12:05:06.638Z,34.74
2023-05-10T12:06:06.572Z,34.82
2023-05-10T12:07:06.631Z,34.74
2023-05-10T12:08:06.662Z,34.92
2023-05-10T12:09:06.751Z,35.00
2023-05-10T12:10:06.746Z,34.97
2023-05-10T12:11:06.765Z,35.04
2023-05-10T12:12:06.815Z,35.04
2023-05-10T12:13:06.849Z,35.01
2023-05-10T12:14:06.905Z,35.09
2023-05-10T12:15:06.913Z,35.07
2023-05-10T12:16:06.976Z,35.08
2023-05-10T12:17:07.010Z,35.07
2023-05-10T12:18:07.069Z,35.06
2023-05-10T12:19:07.083Z,35.02
2023-05-10T12:20:07.105Z,35.04
2023-05-10T12:21:07.168Z,35.10
2023-05-10T12:22:07.169Z,35.06
2023-05-10T12:23:07.190Z,35.09
2023-05-10T12:24:07.306Z,35.09
2023-05-10T12:25:07.277Z,35.18
2023-05-10T12:26:07.360Z,35.18
2023-05-10T12:27:07.327Z,35.19
2023-05-10T12:28:07.439Z,35.24
2023-05-10T12:29:07.427Z,35.12
2023-05-10T12:30:07.460Z,35.10
2023-05-10T12:31:07.522Z,35.21
2023-05-10T12:32:07.607Z,35.30
2023-05-10T12:33:07.580Z,35.31
2023-05-10T12:34:07.620Z,35.35
2023-05-10T12:35:07.629Z,35.36
2023-05-10T12:36:07.626Z,35.40
2023-05-10T12:37:07.717Z,34.75
2023-05-10T12:38:07.746Z,34.75
2023-05-10T12:39:07.739Z,34.94
2023-05-10T12:40:07.786Z,35.14
2023-05-10T12:41:07.842Z,35.18
2023-05-10T12:42:07.885Z,35.34
2023-05-10T12:43:07.905Z,35.31
2023-05-10T12:44:07.918Z,36.16
2023-05-10T12:45:08.004Z,41.36
2023-05-10T12:46:08.096Z,41.97
2023-05-10T12:47:08.001Z,45.10
2023-05-10T12:48:08.061Z,44.87
2023-05-10T12:49:09.726Z,47.04
2023-05-10T12:50:08.073Z,44.82
2023-05-10T12:51:08.130Z,45.27
2023-05-10T12:52:08.169Z,43.93
2023-05-10T12:53:08.198Z,44.35